Kansas City International Airport
KMCI : now visible

Airfield :











YOU CAN JOIN US ON...

 
LOGIN :

Register | Disclaimer

   EN    FR    IT 

 









Legend :    VFR   Marginal VFR   IFR   Intensive IFR   Very Intensive IFR
Visi :
Ceiling :
>= 8 km
>= 3000ft
5 to 8 km
1000 to 3000 ft
1500m to 5 km
500 to 1000 ft
800 to 1500m
200 to 500 ft
< 800m
< 200 ft
Symbols :   Thunderstorms  Fog  Heavy snow  Heavy precipitations  Wind > 20 kt






- Airport Elevation : 1026 ft
- IATA code : MCI


KMCI - Kansas City International

CURRENT METAR :
  • 231353Z 21010KT 10SM BKN160 BKN200 08/03 A3000 RMK AO2 SLP160 T00830028

EXPIRED METARs :
  • 231253Z 21008KT 10SM SCT130 OVC200 06/02 A2998 RMK AO2 SLP156 T00610017
  • 231153Z 20009KT 10SM CLR 07/02 A2998 RMK AO2 SLP153 T00720017 10078 20061 56003

TAF KMCI
Valid from the 23 at 12:00 until the 24 at 12:00 UTC


231120Z 2312/2412 20009KT P6SM SCT150 OVC200
FM232100 18005KT P6SM BKN120 OVC200
FM240200 07008KT 6SM -RA SCT025 OVC040
FM240500 07009KT 5SM -RA OVC015
FM240900 05012KT 6SM -RA OVC008



MET'MAP, your aeronautical weather chart ! - Copyright ORBIFLY December 2007 - Disclaimer

ORBIFLY MET'MAP TEAM :

Programming & Development : Alexandra Zaïnal
Concept & original design : Baudouin d'Aumeries
Assistance for programming : Marc-Olivier Méhu
Technical & hardware support : Manuel Goepfert

Contact : metmap@orbifly.com




SOURCES & CREDITS :

   NOAA       Earth
Advisory